Time;durP1;ratioP1;P1;durP2;ratioP2;P2;SDS_P1;SDS_P2;PMS_P1;PMS_P2;Temp;Humidity;BMP_temperature;BMP_pressure;BME280_temperature;BME280_humidity;BME280_pressure;Samples;Min_cycle;Max_cycle;Signal;HPM_P1;HPM_P2
2021/12/13 00:02:12;;;;;;;8.80;0.50;;;;;;;;;;5035050;28;20033;-57
2021/12/13 00:04:45;;;;;;;5.80;1.30;;;;;;;;;;5030728;28;20032;-57
2021/12/13 00:07:25;;;;;;;22.30;1.00;;;;;;;;;;5031587;28;20410;-57
2021/12/13 00:09:52;;;;;;;9.15;0.52;;;;;;;;;;5027857;28;20032;-58
2021/12/13 00:12:33;;;;;;;13.15;1.60;;;;;;;;;;5026209;28;20447;-55
2021/12/13 00:14:59;;;;;;;16.80;1.02;;;;;;;;;;5030824;28;20037;-56
2021/12/13 00:17:36;;;;;;;16.20;1.23;;;;;;;;;;5031992;28;20032;-56
2021/12/13 00:20:26;;;;;;;16.98;0.90;;;;;;;;;;5030876;28;20087;-58
2021/12/13 00:22:52;;;;;;;19.60;1.85;;;;;;;;;;5028889;28;20275;-56
2021/12/13 00:25:26;;;;;;;15.00;0.98;;;;;;;;;;5031298;28;20538;-56
2021/12/13 00:28:13;;;;;;;8.57;1.13;;;;;;;;;;5027697;28;20439;-56
2021/12/13 00:30:52;;;;;;;17.23;1.08;;;;;;;;;;5026864;28;20052;-56
2021/12/13 00:33:44;;;;;;;12.27;1.20;;;;;;;;;;5029877;28;20042;-56
2021/12/13 00:36:25;;;;;;;;;;;;;;;;;;5029696;28;20036;-57
2021/12/13 00:39:01;;;;;;;12.80;0.93;;;;;;;;;;5030770;28;19913;-57
2021/12/13 00:41:29;;;;;;;21.65;2.10;;;;;;;;;;5028786;28;20117;-55
2021/12/13 00:44:07;;;;;;;16.17;1.40;;;;;;;;;;5025862;28;20043;-56
2021/12/13 00:46:35;;;;;;;9.45;1.10;;;;;;;;;;5032054;28;20071;-54
2021/12/13 00:49:03;;;;;;;17.00;1.27;;;;;;;;;;5027070;28;20041;-56
2021/12/13 00:51:34;;;;;;;15.73;1.65;;;;;;;;;;5026569;28;20550;-55
2021/12/13 00:54:03;;;;;;;13.85;2.15;;;;;;;;;;5028854;28;20033;-56
2021/12/13 00:57:04;;;;;;;12.48;1.08;;;;;;;;;;5028932;28;20033;-56
2021/12/13 00:59:31;;;;;;;19.73;0.90;;;;;;;;;;5025517;28;20593;-56
2021/12/13 01:02:15;;;;;;;13.73;0.95;;;;;;;;;;5013432;28;20096;-57
2021/12/13 01:05:00;;;;;;;11.65;1.20;;;;;;;;;;5015016;28;20268;-56
2021/12/13 01:07:34;;;;;;;8.63;1.33;;;;;;;;;;5014938;28;20037;-57
2021/12/13 01:10:27;;;;;;;20.02;1.52;;;;;;;;;;5009765;28;20026;-56
2021/12/13 01:12:55;;;;;;;16.40;1.23;;;;;;;;;;5008409;28;20042;-57
2021/12/13 01:15:49;;;;;;;9.15;0.98;;;;;;;;;;5015272;28;20033;-57
2021/12/13 01:18:36;;;;;;;11.52;0.45;;;;;;;;;;5010993;28;20075;-55
2021/12/13 01:21:31;;;;;;;12.57;1.27;;;;;;;;;;5014237;28;20099;-57
2021/12/13 01:24:07;;;;;;;13.30;0.93;;;;;;;;;;5014255;28;20516;-56
2021/12/13 01:26:40;;;;;;;14.55;1.42;;;;;;;;;;5015846;28;20037;-57
2021/12/13 01:29:32;;;;;;;8.60;0.82;;;;;;;;;;5015114;28;20026;-56
2021/12/13 01:32:04;;;;;;;14.18;1.92;;;;;;;;;;5009698;28;20579;-57
2021/12/13 01:34:35;;;;;;;20.80;2.05;;;;;;;;;;5010498;28;20468;-56
2021/12/13 01:37:12;;;;;;;18.73;1.33;;;;;;;;;;5010489;28;20036;-56
2021/12/13 01:39:41;;;;;;;13.43;1.08;;;;;;;;;;5014049;28;20508;-56
2021/12/13 01:42:13;;;;;;;11.30;1.58;;;;;;;;;;5011191;28;20035;-56
2021/12/13 01:44:46;;;;;;;16.25;1.20;;;;;;;;;;5012597;28;20429;-57
2021/12/13 01:47:24;;;;;;;13.32;1.08;;;;;;;;;;5016544;28;20390;-57
2021/12/13 01:49:55;;;;;;;20.63;0.70;;;;;;;;;;5005547;28;20037;-56
2021/12/13 01:52:30;;;;;;;17.70;1.75;;;;;;;;;;5013126;28;20552;-57
2021/12/13 01:55:00;;;;;;;12.57;1.25;;;;;;;;;;5007874;28;20054;-55
2021/12/13 01:57:40;;;;;;;11.93;1.08;;;;;;;;;;5012018;28;20468;-56
2021/12/13 02:00:21;;;;;;;16.50;1.08;;;;;;;;;;5012771;28;20496;-54
2021/12/13 02:02:51;;;;;;;11.10;1.17;;;;;;;;;;5016207;28;20026;-55
2021/12/13 02:05:30;;;;;;;21.08;1.95;;;;;;;;;;5012359;28;20025;-56
2021/12/13 02:08:01;;;;;;;14.32;1.55;;;;;;;;;;5014167;28;20033;-55
2021/12/13 02:10:41;;;;;;;18.57;1.40;;;;;;;;;;5015691;28;20052;-55
2021/12/13 02:13:16;;;;;;;9.25;1.52;;;;;;;;;;5016707;28;20263;-56
2021/12/13 02:18:33;;;;;;;13.75;0.95;;;;;;;;;;5004201;28;20183;-54
2021/12/13 02:21:21;;;;;;;13.75;0.88;;;;;;;;;;5010942;28;20068;-56
2021/12/13 02:23:50;;;;;;;10.15;1.00;;;;;;;;;;5013288;28;20030;-54
2021/12/13 02:26:16;;;;;;;9.80;0.73;;;;;;;;;;5018745;28;20460;-56
2021/12/13 02:28:47;;;;;;;13.60;1.08;;;;;;;;;;5011573;28;20087;-57
2021/12/13 02:31:19;;;;;;;12.65;0.90;;;;;;;;;;5018283;28;20037;-57
2021/12/13 02:33:52;;;;;;;15.60;1.17;;;;;;;;;;5013415;28;20037;-55
2021/12/13 02:36:22;;;;;;;18.40;1.50;;;;;;;;;;5014075;28;20654;-55
2021/12/13 02:38:51;;;;;;;18.33;1.38;;;;;;;;;;5015388;28;20593;-55
2021/12/13 02:41:23;;;;;;;25.48;1.27;;;;;;;;;;5013507;28;20026;-56
2021/12/13 02:43:53;;;;;;;14.67;1.80;;;;;;;;;;5013761;28;20070;-56
2021/12/13 02:46:20;;;;;;;12.05;0.98;;;;;;;;;;5015013;28;20053;-56
2021/12/13 02:48:54;;;;;;;25.35;1.00;;;;;;;;;;5014543;28;20029;-56
2021/12/13 02:51:25;;;;;;;27.98;1.92;;;;;;;;;;5017826;28;20144;-57
2021/12/13 02:54:05;;;;;;;22.02;0.82;;;;;;;;;;5011385;28;20597;-54
2021/12/13 02:56:37;;;;;;;26.83;1.92;;;;;;;;;;5012936;28;20532;-56
2021/12/13 02:59:04;;;;;;;;;;;;;;;;;;5015005;28;20038;-57
2021/12/13 03:01:44;;;;;;;28.90;1.42;;;;;;;;;;5015243;28;20383;-56
2021/12/13 03:04:13;;;;;;;10.50;1.15;;;;;;;;;;5018815;28;20717;-56
2021/12/13 03:06:45;;;;;;;13.27;0.93;;;;;;;;;;5014560;28;20037;-56
2021/12/13 03:09:16;;;;;;;21.73;1.20;;;;;;;;;;5011310;28;20029;-56
2021/12/13 03:11:44;;;;;;;19.20;1.52;;;;;;;;;;5017110;28;20287;-56
2021/12/13 03:14:14;;;;;;;15.20;1.90;;;;;;;;;;5014202;28;20042;-56
2021/12/13 03:16:39;;;;;;;23.05;1.52;;;;;;;;;;5015001;28;20021;-56
2021/12/13 03:19:17;;;;;;;17.95;1.58;;;;;;;;;;5010503;28;20041;-56
2021/12/13 03:22:11;;;;;;;16.33;0.98;;;;;;;;;;5013466;28;20061;-55
2021/12/13 03:24:47;;;;;;;19.35;1.10;;;;;;;;;;5015937;28;20021;-56
2021/12/13 03:27:37;;;;;;;17.42;1.63;;;;;;;;;;5011778;28;20033;-55
2021/12/13 03:30:15;;;;;;;14.73;0.90;;;;;;;;;;5015837;28;20033;-57
2021/12/13 03:32:59;;;;;;;8.52;0.85;;;;;;;;;;5012155;28;20124;-56
2021/12/13 03:35:36;;;;;;;14.93;0.88;;;;;;;;;;5013400;28;20025;-56
2021/12/13 03:38:16;;;;;;;16.02;0.95;;;;;;;;;;5012938;28;20528;-55
2021/12/13 03:40:42;;;;;;;13.88;1.15;;;;;;;;;;5017485;28;20040;-57
2021/12/13 03:43:12;;;;;;;17.60;1.00;;;;;;;;;;5012614;28;20049;-56
2021/12/13 03:45:43;;;;;;;4.93;0.63;;;;;;;;;;5018721;28;20029;-56
2021/12/13 03:48:11;;;;;;;19.90;1.27;;;;;;;;;;5014946;28;20366;-56
2021/12/13 03:50:49;;;;;;;18.73;1.23;;;;;;;;;;5011316;28;20034;-56
2021/12/13 03:53:22;;;;;;;12.85;1.83;;;;;;;;;;5015609;28;20265;-56
2021/12/13 03:55:49;;;;;;;;;;;;;;;;;;5012158;28;20389;-55
2021/12/13 03:58:18;;;;;;;17.90;1.10;;;;;;;;;;5018156;28;20443;-56
2021/12/13 04:00:54;;;;;;;8.57;1.25;;;;;;;;;;5013055;28;20115;-55
2021/12/13 04:03:20;;;;;;;18.77;0.98;;;;;;;;;;5010023;28;20048;-55
2021/12/13 04:05:47;;;;;;;11.00;0.93;;;;;;;;;;5010809;28;20033;-56
2021/12/13 04:08:16;;;;;;;10.00;1.10;;;;;;;;;;5009396;28;20133;-56
2021/12/13 04:11:04;;;;;;;4.60;0.68;;;;;;;;;;5011200;28;20123;-57
2021/12/13 04:13:35;;;;;;;11.70;1.38;;;;;;;;;;5009420;28;20033;-56
2021/12/13 04:16:17;;;;;;;10.15;0.63;;;;;;;;;;5014491;28;20553;-56
2021/12/13 04:21:24;;;;;;;10.13;0.93;;;;;;;;;;5012500;28;20037;-56
2021/12/13 04:23:52;;;;;;;17.25;1.50;;;;;;;;;;5016561;28;20530;-56
2021/12/13 04:26:19;;;;;;;19.95;1.23;;;;;;;;;;5010694;28;20030;-56
2021/12/13 04:28:48;;;;;;;20.92;1.23;;;;;;;;;;5011000;28;20064;-56
2021/12/13 04:31:19;;;;;;;18.48;1.35;;;;;;;;;;5013757;28;20156;-57
2021/12/13 04:33:49;;;;;;;7.47;0.70;;;;;;;;;;5010195;28;20079;-56
2021/12/13 04:36:24;;;;;;;16.98;1.27;;;;;;;;;;5028571;28;20509;-56
2021/12/13 04:39:03;;;;;;;21.05;1.60;;;;;;;;;;5014414;28;20061;-56
2021/12/13 04:41:46;;;;;;;15.68;0.93;;;;;;;;;;5013045;28;20060;-56
2021/12/13 04:44:46;;;;;;;19.38;1.67;;;;;;;;;;5015010;28;20075;-55
2021/12/13 04:47:15;;;;;;;7.63;0.90;;;;;;;;;;5001104;28;20056;-56
2021/12/13 04:49:47;;;;;;;16.30;1.35;;;;;;;;;;5013321;28;20044;-56
2021/12/13 04:52:14;;;;;;;;;;;;;;;;;;5016279;28;20033;-56
2021/12/13 04:54:45;;;;;;;22.95;1.25;;;;;;;;;;5010236;28;20348;-54
2021/12/13 04:57:11;;;;;;;17.92;1.45;;;;;;;;;;5014844;28;20030;-56
2021/12/13 04:59:37;;;;;;;20.50;1.23;;;;;;;;;;5007982;28;20536;-56
2021/12/13 05:02:07;;;;;;;17.23;0.90;;;;;;;;;;5011618;28;20447;-56
2021/12/13 05:04:33;;;;;;;13.00;1.17;;;;;;;;;;5012041;28;20408;-56
2021/12/13 05:07:02;;;;;;;12.20;1.15;;;;;;;;;;5016957;28;20029;-55
2021/12/13 05:09:28;;;;;;;10.55;0.80;;;;;;;;;;5014020;28;20124;-57
2021/12/13 05:11:56;;;;;;;14.32;0.82;;;;;;;;;;5018013;28;20140;-57
2021/12/13 05:14:50;;;;;;;15.13;1.08;;;;;;;;;;5011557;28;20036;-57
2021/12/13 05:17:26;;;;;;;28.67;2.33;;;;;;;;;;5013455;28;20452;-55
2021/12/13 05:20:00;;;;;;;6.78;0.98;;;;;;;;;;5012534;28;20234;-56
2021/12/13 05:22:27;;;;;;;13.68;1.20;;;;;;;;;;5014602;28;20231;-56
2021/12/13 05:25:00;;;;;;;21.15;3.28;;;;;;;;;;5010750;28;20021;-56
2021/12/13 05:27:30;;;;;;;17.65;0.80;;;;;;;;;;5008577;28;20448;-55
2021/12/13 05:30:14;;;;;;;17.88;1.30;;;;;;;;;;5013446;28;20472;-56
2021/12/13 05:33:02;;;;;;;20.85;1.15;;;;;;;;;;5014517;28;20030;-56
2021/12/13 05:35:28;;;;;;;19.23;1.60;;;;;;;;;;5011273;28;20091;-53
2021/12/13 05:37:58;;;;;;;23.40;1.90;;;;;;;;;;5010374;28;20033;-55
2021/12/13 05:40:45;;;;;;;16.02;1.20;;;;;;;;;;5019012;28;20983;-56
2021/12/13 05:43:13;;;;;;;11.27;1.30;;;;;;;;;;5016861;28;20037;-55
2021/12/13 05:45:47;;;;;;;12.45;1.40;;;;;;;;;;5014150;28;20032;-54
2021/12/13 05:48:19;;;;;;;22.08;1.30;;;;;;;;;;5015764;28;20021;-55
2021/12/13 05:50:44;;;;;;;6.93;0.95;;;;;;;;;;5015689;28;20041;-56
2021/12/13 05:53:17;;;;;;;20.33;1.30;;;;;;;;;;5011918;28;20397;-56
2021/12/13 05:55:53;;;;;;;10.50;0.88;;;;;;;;;;5014393;28;20117;-56
2021/12/13 05:58:57;;;;;;;26.42;1.20;;;;;;;;;;5022735;28;20110;-56
2021/12/13 06:01:31;;;;;;;13.70;1.48;;;;;;;;;;5009017;28;20535;-57
2021/12/13 06:04:05;;;;;;;9.88;1.00;;;;;;;;;;5016370;28;20033;-56
2021/12/13 06:06:41;;;;;;;26.20;1.08;;;;;;;;;;5013871;28;20083;-56
2021/12/13 06:09:07;;;;;;;14.70;0.60;;;;;;;;;;5014720;28;20033;-55
2021/12/13 06:11:34;;;;;;;14.93;0.75;;;;;;;;;;5010975;28;20095;-54
2021/12/13 06:14:16;;;;;;;20.10;1.17;;;;;;;;;;5015717;28;20022;-56
2021/12/13 06:16:54;;;;;;;;;;;;;;;;;;5013066;28;20021;-56
2021/12/13 06:19:27;;;;;;;22.25;0.95;;;;;;;;;;5014316;28;19917;-57
2021/12/13 06:22:04;;;;;;;9.68;0.77;;;;;;;;;;5010440;28;20033;-55
2021/12/13 06:24:43;;;;;;;15.18;0.80;;;;;;;;;;5018480;28;20279;-56
2021/12/13 06:27:16;;;;;;;8.73;1.15;;;;;;;;;;5016524;28;20033;-56
2021/12/13 06:29:52;;;;;;;15.38;1.63;;;;;;;;;;5012905;28;20029;-57
2021/12/13 06:32:25;;;;;;;8.27;0.80;;;;;;;;;;5017780;28;20116;-55
2021/12/13 06:34:51;;;;;;;9.98;0.80;;;;;;;;;;5021189;28;20025;-55
2021/12/13 06:37:26;;;;;;;18.77;1.17;;;;;;;;;;5014708;28;20025;-55
2021/12/13 06:40:10;;;;;;;12.35;0.88;;;;;;;;;;5008965;28;20030;-54
2021/12/13 06:42:36;;;;;;;14.93;1.17;;;;;;;;;;5017208;28;20017;-55
2021/12/13 06:45:02;;;;;;;17.73;1.05;;;;;;;;;;5014663;28;20095;-54
2021/12/13 06:47:27;;;;;;;21.17;1.67;;;;;;;;;;5016882;28;20318;-56
2021/12/13 06:49:58;;;;;;;19.75;0.88;;;;;;;;;;5014540;28;20037;-56
2021/12/13 06:52:33;;;;;;;15.80;1.00;;;;;;;;;;5014764;28;20242;-56
2021/12/13 06:55:05;;;;;;;20.60;1.33;;;;;;;;;;5008545;28;20524;-55
2021/12/13 06:57:30;;;;;;;19.73;1.50;;;;;;;;;;5015987;28;20037;-53
2021/12/13 07:00:15;;;;;;;15.95;1.27;;;;;;;;;;5013835;28;20056;-56
2021/12/13 07:02:47;;;;;;;20.40;1.35;;;;;;;;;;5013745;28;20044;-55
2021/12/13 07:05:34;;;;;;;12.75;0.77;;;;;;;;;;5014539;28;20042;-56
2021/12/13 07:08:06;;;;;;;11.13;0.90;;;;;;;;;;5010952;28;20503;-56
2021/12/13 07:10:37;;;;;;;16.38;1.00;;;;;;;;;;5013269;28;20029;-55
2021/12/13 07:13:17;;;;;;;14.37;1.50;;;;;;;;;;5011267;28;20535;-55
2021/12/13 07:15:54;;;;;;;15.65;1.48;;;;;;;;;;5012812;28;20294;-54
2021/12/13 07:18:29;;;;;;;14.30;1.48;;;;;;;;;;5014712;28;20025;-55
2021/12/13 07:20:56;;;;;;;9.82;1.13;;;;;;;;;;5016429;28;20037;-55
2021/12/13 07:23:22;;;;;;;30.80;2.25;;;;;;;;;;5018523;28;20432;-54
2021/12/13 07:25:52;;;;;;;14.32;2.60;;;;;;;;;;5014394;28;20025;-55
2021/12/13 07:28:50;;;;;;;16.50;1.50;;;;;;;;;;5014122;28;20033;-54
2021/12/13 07:31:20;;;;;;;8.98;1.05;;;;;;;;;;5002753;28;20041;-57
2021/12/13 07:33:46;;;;;;;6.95;1.10;;;;;;;;;;5009668;28;20100;-55
2021/12/13 07:36:27;;;;;;;18.35;1.48;;;;;;;;;;5011873;28;20113;-53
2021/12/13 07:39:00;;;;;;;21.03;1.30;;;;;;;;;;5008323;28;20047;-56
2021/12/13 07:41:40;;;;;;;13.55;0.98;;;;;;;;;;5014672;28;20495;-53
2021/12/13 07:44:06;;;;;;;14.15;1.00;;;;;;;;;;5014253;28;20034;-55
2021/12/13 07:46:32;;;;;;;17.05;1.10;;;;;;;;;;5011086;28;20504;-56
2021/12/13 07:49:10;;;;;;;16.85;0.95;;;;;;;;;;5013954;28;20605;-55
2021/12/13 07:51:46;;;;;;;17.90;1.00;;;;;;;;;;5012773;28;20029;-56
2021/12/13 07:54:18;;;;;;;20.70;2.22;;;;;;;;;;5009109;28;20052;-55
2021/12/13 07:56:57;;;;;;;8.75;0.90;;;;;;;;;;5014821;28;20472;-56
2021/12/13 07:59:37;;;;;;;6.85;0.80;;;;;;;;;;5014908;28;20034;-56
2021/12/13 08:02:19;;;;;;;10.93;0.90;;;;;;;;;;5014244;28;20034;-56
2021/12/13 08:04:49;;;;;;;16.67;1.40;;;;;;;;;;5010986;28;20032;-55
2021/12/13 08:07:21;;;;;;;19.95;1.67;;;;;;;;;;5010885;28;20036;-57
2021/12/13 08:10:01;;;;;;;9.45;1.50;;;;;;;;;;5009773;28;20037;-55
2021/12/13 08:12:39;;;;;;;11.98;1.83;;;;;;;;;;5016015;28;20144;-55
2021/12/13 08:15:17;;;;;;;7.55;1.02;;;;;;;;;;5014218;28;20044;-56
2021/12/13 08:17:48;;;;;;;9.70;1.00;;;;;;;;;;5013318;28;20029;-55
2021/12/13 08:20:30;;;;;;;11.70;1.27;;;;;;;;;;5015484;28;20580;-56
2021/12/13 08:22:58;;;;;;;17.67;1.60;;;;;;;;;;5012143;28;20053;-57
2021/12/13 08:25:31;;;;;;;15.88;1.17;;;;;;;;;;5013524;28;20072;-52
2021/12/13 08:28:02;;;;;;;16.60;1.25;;;;;;;;;;5002480;28;20508;-52
2021/12/13 08:30:48;;;;;;;13.95;1.10;;;;;;;;;;5011593;28;20048;-52
2021/12/13 08:33:16;;;;;;;15.95;1.27;;;;;;;;;;5011433;28;20547;-52
2021/12/13 08:35:55;;;;;;;12.82;1.70;;;;;;;;;;5014066;28;20092;-50
2021/12/13 08:38:29;;;;;;;6.75;0.65;;;;;;;;;;5009882;28;20013;-52
2021/12/13 08:40:59;;;;;;;10.90;1.63;;;;;;;;;;5016123;28;20059;-51
2021/12/13 08:43:37;;;;;;;10.27;1.45;;;;;;;;;;5016556;28;20479;-51
2021/12/13 08:46:03;;;;;;;10.88;1.30;;;;;;;;;;5013897;28;20028;-51
2021/12/13 08:48:29;;;;;;;21.13;1.50;;;;;;;;;;5009091;28;20111;-58
2021/12/13 08:51:01;;;;;;;8.90;1.15;;;;;;;;;;5014712;28;20083;-53
2021/12/13 08:53:35;;;;;;;9.35;1.30;;;;;;;;;;5016976;28;20025;-54
2021/12/13 08:56:20;;;;;;;15.90;1.40;;;;;;;;;;5020816;28;20376;-55
2021/12/13 08:58:59;;;;;;;18.73;1.73;;;;;;;;;;5013398;28;20039;-53
2021/12/13 09:01:28;;;;;;;16.85;2.38;;;;;;;;;;5016841;28;20409;-54
2021/12/13 09:03:55;;;;;;;9.40;1.40;;;;;;;;;;5016724;28;20409;-54
2021/12/13 09:06:20;;;;;;;19.27;1.77;;;;;;;;;;5015265;28;20049;-55
2021/12/13 09:08:52;;;;;;;18.25;1.55;;;;;;;;;;5016291;28;20671;-54
2021/12/13 09:11:32;;;;;;;26.00;2.40;;;;;;;;;;5016140;28;20060;-54
2021/12/13 09:14:13;;;;;;;15.85;1.73;;;;;;;;;;5015352;28;20042;-50
2021/12/13 09:16:45;;;;;;;13.93;1.50;;;;;;;;;;5014916;28;20109;-53
2021/12/13 09:19:23;;;;;;;23.17;3.58;;;;;;;;;;5020271;28;20108;-54
2021/12/13 09:21:58;;;;;;;15.88;1.73;;;;;;;;;;5015686;28;20092;-51
2021/12/13 09:24:33;;;;;;;10.15;1.80;;;;;;;;;;5014858;28;20470;-54
2021/12/13 09:27:29;;;;;;;19.40;1.58;;;;;;;;;;5015859;28;20037;-54
2021/12/13 09:30:01;;;;;;;11.48;1.90;;;;;;;;;;5015658;28;20129;-54
2021/12/13 09:32:51;;;;;;;11.65;1.63;;;;;;;;;;5019173;28;20049;-54
2021/12/13 09:35:35;;;;;;;12.20;2.22;;;;;;;;;;5023513;28;20888;-55
2021/12/13 09:38:21;;;;;;;12.77;2.13;;;;;;;;;;5017679;28;20283;-54
2021/12/13 09:41:00;;;;;;;8.93;1.77;;;;;;;;;;5017985;28;20121;-51
2021/12/13 09:43:55;;;;;;;24.15;1.60;;;;;;;;;;5020135;28;20337;-53
2021/12/13 09:46:44;;;;;;;11.93;3.08;;;;;;;;;;5021724;28;20053;-54
2021/12/13 09:49:13;;;;;;;11.45;1.60;;;;;;;;;;5014287;28;20030;-55
2021/12/13 09:51:52;;;;;;;13.30;3.15;;;;;;;;;;5016128;28;20116;-53
2021/12/13 09:54:21;;;;;;;18.60;2.28;;;;;;;;;;5023235;28;20068;-53
2021/12/13 09:56:50;;;;;;;13.70;2.10;;;;;;;;;;5019328;28;20026;-54
2021/12/13 09:59:24;;;;;;;15.05;2.63;;;;;;;;;;5017457;28;20033;-54
2021/12/13 10:01:52;;;;;;;25.48;2.55;;;;;;;;;;5014321;28;20033;-54
2021/12/13 10:04:32;;;;;;;24.48;3.33;;;;;;;;;;5021461;28;20129;-53
2021/12/13 10:07:10;;;;;;;38.17;3.97;;;;;;;;;;5016118;28;20526;-52
2021/12/13 10:09:42;;;;;;;33.58;4.75;;;;;;;;;;5019784;28;20087;-55
2021/12/13 10:12:14;;;;;;;40.25;3.75;;;;;;;;;;5017721;28;20057;-52
2021/12/13 10:14:47;;;;;;;28.70;4.25;;;;;;;;;;5021174;28;20432;-52
2021/12/13 10:17:17;;;;;;;30.25;4.15;;;;;;;;;;5017171;28;20583;-54
2021/12/13 10:19:53;;;;;;;20.17;3.85;;;;;;;;;;5018238;28;20043;-53
2021/12/13 10:22:24;;;;;;;21.85;4.40;;;;;;;;;;5019478;28;20518;-53
2021/12/13 10:25:00;;;;;;;41.72;5.07;;;;;;;;;;5023185;28;20140;-53
2021/12/13 10:27:26;;;;;;;31.80;8.35;;;;;;;;;;5018857;28;20380;-54
2021/12/13 10:29:56;;;;;;;26.88;5.90;;;;;;;;;;5015752;28;20033;-54
2021/12/13 10:32:32;;;;;;;27.45;4.57;;;;;;;;;;5020835;28;20032;-60
2021/12/13 10:35:28;;;;;;;25.30;3.95;;;;;;;;;;5023106;28;20378;-60
2021/12/13 10:38:01;;;;;;;26.58;5.32;;;;;;;;;;5017010;28;20152;-60
2021/12/13 10:40:41;;;;;;;23.15;4.30;;;;;;;;;;5017136;28;20048;-60
2021/12/13 10:43:18;;;;;;;23.63;4.20;;;;;;;;;;5019607;28;20030;-60
2021/12/13 10:45:50;;;;;;;23.23;4.28;;;;;;;;;;5019586;28;20049;-60
2021/12/13 10:48:18;;;;;;;26.13;3.85;;;;;;;;;;5013320;28;20026;-60
2021/12/13 10:50:54;;;;;;;29.10;4.28;;;;;;;;;;5020835;28;20037;-59
2021/12/13 10:53:23;;;;;;;28.35;3.90;;;;;;;;;;5014766;28;20131;-60
2021/12/13 10:55:53;;;;;;;16.60;3.70;;;;;;;;;;5009585;28;20049;-60
2021/12/13 10:58:24;;;;;;;16.98;3.92;;;;;;;;;;5016842;28;20519;-59
2021/12/13 11:01:19;;;;;;;32.70;6.15;;;;;;;;;;5021732;28;20021;-60
2021/12/13 11:03:46;;;;;;;29.52;4.38;;;;;;;;;;5018196;28;20037;-53
2021/12/13 11:06:14;;;;;;;17.58;3.22;;;;;;;;;;5014219;28;20026;-60
2021/12/13 11:08:42;;;;;;;24.65;3.38;;;;;;;;;;5012529;28;20475;-61
2021/12/13 11:11:20;;;;;;;26.17;3.78;;;;;;;;;;5015028;28;20037;-61
2021/12/13 11:13:49;;;;;;;31.13;4.47;;;;;;;;;;5018846;28;20257;-60
2021/12/13 11:16:22;;;;;;;18.45;3.40;;;;;;;;;;5014052;28;20034;-60
2021/12/13 11:18:48;;;;;;;21.90;4.47;;;;;;;;;;5017279;28;20029;-61
2021/12/13 11:21:24;;;;;;;21.48;4.10;;;;;;;;;;5016650;28;20124;-61
2021/12/13 11:23:49;;;;;;;17.92;4.22;;;;;;;;;;5016831;28;20068;-61
2021/12/13 11:26:20;;;;;;;28.77;4.30;;;;;;;;;;5022303;28;20061;-60
2021/12/13 11:28:48;;;;;;;40.28;5.70;;;;;;;;;;5015842;28;20022;-60
2021/12/13 11:31:28;;;;;;;26.27;4.78;;;;;;;;;;5016554;28;20083;-61
2021/12/13 11:34:01;;;;;;;17.50;3.78;;;;;;;;;;5010169;28;20036;-60
2021/12/13 11:36:42;;;;;;;;;;;;;;;;;;5010908;28;20029;-60
2021/12/13 11:39:26;;;;;;;29.27;4.60;;;;;;;;;;5012558;28;19940;-60
2021/12/13 11:42:12;;;;;;;33.05;5.55;;;;;;;;;;5013685;28;20116;-60
2021/12/13 11:45:19;;;;;;;25.80;4.88;;;;;;;;;;5015001;28;20033;-60
2021/12/13 11:48:23;;;;;;;28.67;4.25;;;;;;;;;;5011413;28;20412;-60
2021/12/13 11:51:16;;;;;;;46.08;7.38;;;;;;;;;;5016775;28;20103;-60
2021/12/13 11:53:58;;;;;;;16.73;4.07;;;;;;;;;;5015505;28;20132;-60
2021/12/13 11:56:42;;;;;;;24.77;4.30;;;;;;;;;;5013598;28;20141;-60
2021/12/13 11:59:10;;;;;;;17.70;4.20;;;;;;;;;;5014440;28;20037;-60
2021/12/13 12:01:43;;;;;;;17.08;4.03;;;;;;;;;;5016502;28;20159;-60
2021/12/13 12:04:46;;;;;;;42.15;5.07;;;;;;;;;;5015327;28;20045;-60
2021/12/13 12:07:14;;;;;;;27.27;4.97;;;;;;;;;;5009725;28;20113;-60
2021/12/13 12:09:59;;;;;;;27.05;4.10;;;;;;;;;;5011669;28;20520;-60
2021/12/13 12:12:58;;;;;;;27.30;5.05;;;;;;;;;;5014487;28;20033;-60
2021/12/13 12:15:26;;;;;;;29.05;4.93;;;;;;;;;;5011560;28;20635;-60
2021/12/13 12:17:55;;;;;;;29.27;4.70;;;;;;;;;;5014322;28;20033;-60
2021/12/13 12:20:29;;;;;;;21.80;4.47;;;;;;;;;;5013655;28;20030;-60
2021/12/13 12:22:58;;;;;;;25.95;2.88;;;;;;;;;;5013386;28;20547;-61
2021/12/13 12:25:32;;;;;;;22.35;4.05;;;;;;;;;;5008703;28;20123;-61
2021/12/13 12:28:04;;;;;;;14.85;3.47;;;;;;;;;;5004102;28;20026;-61
2021/12/13 12:30:38;;;;;;;24.95;3.78;;;;;;;;;;5010039;28;20033;-61
2021/12/13 12:33:07;;;;;;;23.30;4.40;;;;;;;;;;5012507;28;20026;-61
2021/12/13 12:35:47;;;;;;;24.85;3.83;;;;;;;;;;5010041;28;20109;-61
2021/12/13 12:38:29;;;;;;;16.08;3.78;;;;;;;;;;5007686;28;20029;-61
2021/12/13 12:41:07;;;;;;;22.88;5.13;;;;;;;;;;5015130;28;20041;-59
2021/12/13 12:43:36;;;;;;;25.85;5.45;;;;;;;;;;5014672;28;20021;-60
2021/12/13 12:46:10;;;;;;;23.40;4.85;;;;;;;;;;5015700;28;20021;-60
2021/12/13 12:48:46;;;;;;;31.17;5.95;;;;;;;;;;5014668;28;20432;-61
2021/12/13 12:51:21;;;;;;;31.63;6.05;;;;;;;;;;5009572;28;20036;-60
2021/12/13 12:54:01;;;;;;;40.20;7.32;;;;;;;;;;5018227;28;20519;-60
2021/12/13 12:56:36;;;;;;;38.92;6.93;;;;;;;;;;5017879;28;20064;-60
2021/12/13 12:59:07;;;;;;;45.17;7.90;;;;;;;;;;5011424;28;20033;-60
2021/12/13 13:01:55;;;;;;;33.20;7.35;;;;;;;;;;5015871;28;20033;-59
2021/12/13 13:04:21;;;;;;;28.40;6.28;;;;;;;;;;5012633;28;20014;-60
2021/12/13 13:07:19;;;;;;;49.75;7.38;;;;;;;;;;5011176;28;20500;-59
2021/12/13 13:09:51;;;;;;;34.28;6.93;;;;;;;;;;5016526;28;20056;-60
2021/12/13 13:12:33;;;;;;;31.13;6.30;;;;;;;;;;5017291;28;20487;-60
2021/12/13 13:15:12;;;;;;;38.28;6.78;;;;;;;;;;5011893;28;20492;-60
2021/12/13 13:17:47;;;;;;;35.10;5.53;;;;;;;;;;5020738;28;20640;-60
2021/12/13 13:20:12;;;;;;;38.63;6.47;;;;;;;;;;5019049;28;20038;-60
2021/12/13 13:22:41;;;;;;;28.67;5.40;;;;;;;;;;5018169;28;20511;-60
2021/12/13 13:25:12;;;;;;;31.73;5.07;;;;;;;;;;5016691;28;20022;-61
2021/12/13 13:27:38;;;;;;;32.42;6.32;;;;;;;;;;5014635;28;20396;-60
2021/12/13 13:30:12;;;;;;;42.55;7.75;;;;;;;;;;5014820;28;20057;-61
2021/12/13 13:32:39;;;;;;;23.90;5.85;;;;;;;;;;5013529;28;20594;-60
2021/12/13 13:35:05;;;;;;;28.90;5.82;;;;;;;;;;5017600;28;20025;-61
2021/12/13 13:37:36;;;;;;;24.52;5.07;;;;;;;;;;5017625;28;20564;-61
2021/12/13 13:40:30;;;;;;;18.35;5.13;;;;;;;;;;5011420;28;20029;-61
2021/12/13 13:43:06;;;;;;;22.25;5.75;;;;;;;;;;5006529;28;20125;-60
2021/12/13 13:45:38;;;;;;;20.27;5.97;;;;;;;;;;5007691;28;20044;-61
2021/12/13 13:48:08;;;;;;;39.25;9.05;;;;;;;;;;5009018;28;20026;-60
2021/12/13 13:50:37;;;;;;;26.52;6.13;;;;;;;;;;5016094;28;20121;-60
2021/12/13 13:53:20;;;;;;;35.47;6.80;;;;;;;;;;5018431;28;21623;-60
2021/12/13 13:55:57;;;;;;;34.53;7.32;;;;;;;;;;5012961;28;20060;-60
2021/12/13 13:58:30;;;;;;;25.60;6.93;;;;;;;;;;5019688;28;20036;-60
2021/12/13 14:01:04;;;;;;;26.00;5.90;;;;;;;;;;5017837;28;20440;-60
2021/12/13 14:03:40;;;;;;;24.65;5.63;;;;;;;;;;5022694;28;20026;-60
2021/12/13 14:06:11;;;;;;;28.30;6.00;;;;;;;;;;5013620;28;20013;-60
2021/12/13 14:08:39;;;;;;;43.35;5.25;;;;;;;;;;5013406;28;20087;-60
2021/12/13 14:11:15;;;;;;;28.45;5.88;;;;;;;;;;5014771;28;20030;-61
2021/12/13 14:13:42;;;;;;;20.13;4.88;;;;;;;;;;5017577;28;20029;-60
2021/12/13 14:16:28;;;;;;;21.85;5.28;;;;;;;;;;5017257;28;20045;-60
2021/12/13 14:18:55;;;;;;;29.40;5.85;;;;;;;;;;5018794;28;20109;-59
2021/12/13 14:21:26;;;;;;;20.73;6.05;;;;;;;;;;5015297;28;20033;-62
2021/12/13 14:23:54;;;;;;;25.55;6.18;;;;;;;;;;5020027;28;20033;-60
2021/12/13 14:26:27;;;;;;;30.63;6.05;;;;;;;;;;5018833;28;20535;-60
2021/12/13 14:29:00;;;;;;;29.48;6.50;;;;;;;;;;5018522;28;20090;-60
2021/12/13 14:31:37;;;;;;;25.52;6.60;;;;;;;;;;5015822;28;20038;-60
2021/12/13 14:34:06;;;;;;;29.92;7.80;;;;;;;;;;5024331;28;20033;-61
2021/12/13 14:36:36;;;;;;;25.13;6.72;;;;;;;;;;5023447;28;20033;-60
2021/12/13 14:39:15;;;;;;;37.80;8.77;;;;;;;;;;5016880;28;20033;-60
2021/12/13 14:41:47;;;;;;;33.85;6.40;;;;;;;;;;5016422;28;20021;-60
2021/12/13 14:44:15;;;;;;;33.65;5.57;;;;;;;;;;5019631;28;20055;-61
2021/12/13 14:46:52;;;;;;;23.52;5.57;;;;;;;;;;5012895;28;20021;-60
2021/12/13 14:49:21;;;;;;;24.35;5.05;;;;;;;;;;5017799;28;20041;-61
2021/12/13 14:51:50;;;;;;;27.25;4.95;;;;;;;;;;5018140;28;20093;-60
2021/12/13 14:54:20;;;;;;;24.58;6.30;;;;;;;;;;5017015;28;20022;-59
2021/12/13 14:56:51;;;;;;;28.10;6.38;;;;;;;;;;5020365;28;20029;-60
2021/12/13 14:59:17;;;;;;;21.67;6.80;;;;;;;;;;5019748;28;20510;-59
2021/12/13 15:01:43;;;;;;;29.70;5.80;;;;;;;;;;5014746;28;20125;-59
2021/12/13 15:04:14;;;;;;;18.23;4.25;;;;;;;;;;5014481;28;20501;-59
2021/12/13 15:06:44;;;;;;;36.15;5.78;;;;;;;;;;5017313;28;20030;-60
2021/12/13 15:09:27;;;;;;;22.67;5.05;;;;;;;;;;5015833;28;20480;-59
2021/12/13 15:11:54;;;;;;;;;;;;;;;;;;5012723;28;20438;-58
2021/12/13 15:14:31;;;;;;;30.40;4.38;;;;;;;;;;5023127;28;19916;-58
2021/12/13 15:17:02;;;;;;;20.80;4.35;;;;;;;;;;5015310;28;20040;-59
2021/12/13 15:19:31;;;;;;;22.40;4.63;;;;;;;;;;5013655;28;20036;-58
2021/12/13 15:22:00;;;;;;;32.45;4.95;;;;;;;;;;5017979;28;20330;-58
2021/12/13 15:24:32;;;;;;;35.63;5.97;;;;;;;;;;5016084;28;20033;-59